Ingomar, Montana
Current Conditions -  °F | °C
As of 8:53 PM on Monday 22 Dec 2014 (Local Time) from KMLS Reporting Station
Overcast Overcast  
Wind Chill: 19°   Ceiling: 1500
Heat Index: 31°   Visibility: 10mi
Dew Point: 25°   Wind: 17mph
Humidity: 79%   Direction: 350°N
Pressure: 29.96"   Gusts: NA
Location:  46.57°N, 107.38°W
Report Text: KMLS 230353Z AUTO 35015KT 10SM BKN015 OVC034 M01/M04 A2996 RMK AO2 SLP167 T10061039
Loading
Personal Weather Stations






























Interactive Weather Map New forecast layout! Learn more

10-Day Weather Forecast

Advertisements
Track Severe Weather on mobile